Time;durP1;ratioP1;P1;durP2;ratioP2;P2;SDS_P1;SDS_P2;PMS_P1;PMS_P2;Temp;Humidity;BMP_temperature;BMP_pressure;BME280_temperature;BME280_humidity;BME280_pressure;Samples;Min_cycle;Max_cycle;Signal;HPM_P1;HPM_P2
2022/02/22 00:02:06;;;;;;;13.95;4.15;;;4.40;99.90;;;;;;5022954;28;20436;-81
2022/02/22 00:04:36;;;;;;;10.40;3.80;;;4.40;99.90;;;;;;5018165;28;20496;-82
2022/02/22 00:07:03;;;;;;;12.27;4.15;;;4.40;99.90;;;;;;5039506;28;20382;-83
2022/02/22 00:09:29;;;;;;;14.85;4.40;;;4.50;99.90;;;;;;5037486;28;20743;-81
2022/02/22 00:11:55;;;;;;;13.65;4.10;;;4.50;99.90;;;;;;5018740;28;20385;-82
2022/02/22 00:14:20;;;;;;;11.88;3.78;;;4.60;99.90;;;;;;5036569;28;20382;-82
2022/02/22 00:16:46;;;;;;;13.75;3.90;;;4.70;99.90;;;;;;5018548;28;20377;-82
2022/02/22 00:19:12;;;;;;;12.82;4.40;;;4.70;99.90;;;;;;5016951;28;20467;-82
2022/02/22 00:21:38;;;;;;;13.70;3.42;;;4.80;99.90;;;;;;5036861;28;20401;-81
2022/02/22 00:24:04;;;;;;;13.37;4.00;;;4.90;99.90;;;;;;5018399;28;20385;-82
2022/02/22 00:26:29;;;;;;;13.13;4.70;;;4.90;99.90;;;;;;5037430;28;20388;-82
2022/02/22 00:28:55;;;;;;;12.63;3.87;;;5.00;99.90;;;;;;5036740;28;20373;-82
2022/02/22 00:31:20;;;;;;;11.25;3.50;;;5.00;99.90;;;;;;5019576;28;20387;-82
2022/02/22 00:33:46;;;;;;;9.80;3.55;;;5.10;99.90;;;;;;5019744;28;20736;-82
2022/02/22 00:36:12;;;;;;;14.60;4.40;;;5.10;99.90;;;;;;5017506;28;20377;-82
2022/02/22 00:38:37;;;;;;;10.57;4.00;;;5.20;99.90;;;;;;5035570;28;20743;-83
2022/02/22 00:41:03;;;;;;;10.75;4.18;;;5.20;99.90;;;;;;5034979;28;20954;-82
2022/02/22 00:43:29;;;;;;;9.38;3.15;;;5.30;99.90;;;;;;5035114;28;20384;-82
2022/02/22 00:45:55;;;;;;;10.75;3.90;;;5.40;99.90;;;;;;5035035;28;20377;-82
2022/02/22 00:48:20;;;;;;;13.65;3.47;;;5.30;99.90;;;;;;5035721;28;20811;-82
2022/02/22 00:50:46;;;;;;;9.43;3.67;;;5.30;99.90;;;;;;5017852;28;20378;-82
2022/02/22 00:53:12;;;;;;;13.10;3.87;;;5.20;99.90;;;;;;5035647;28;20373;-81
2022/02/22 00:55:37;;;;;;;10.52;3.80;;;5.20;99.90;;;;;;5035537;28;20870;-82
2022/02/22 00:58:03;;;;;;;13.80;4.07;;;5.20;99.90;;;;;;5018024;28;20735;-81
2022/02/22 01:00:28;;;;;;;10.75;3.80;;;5.20;99.90;;;;;;5018221;28;20408;-81
2022/02/22 01:02:54;;;;;;;9.17;3.50;;;5.20;99.90;;;;;;5035409;28;20400;-82
2022/02/22 01:05:20;;;;;;;10.20;3.60;;;5.20;99.90;;;;;;5036040;28;20476;-82
2022/02/22 01:07:46;;;;;;;16.08;3.47;;;5.10;99.90;;;;;;5037070;28;20369;-83
2022/02/22 01:10:11;;;;;;;16.48;4.00;;;5.10;99.90;;;;;;5018824;28;20961;-82
2022/02/22 01:12:37;;;;;;;12.43;3.67;;;5.10;99.90;;;;;;5033926;28;20390;-84
2022/02/22 01:15:04;;;;;;;14.17;3.63;;;5.20;99.90;;;;;;5036090;28;20875;-82
2022/02/22 01:17:29;;;;;;;11.40;3.80;;;5.20;99.90;;;;;;5016903;28;20770;-82
2022/02/22 01:19:55;;;;;;;16.93;3.67;;;5.30;99.90;;;;;;5034856;28;20402;-82
2022/02/22 01:22:21;;;;;;;16.50;3.95;;;5.30;99.90;;;;;;5035725;28;20400;-82
2022/02/22 01:24:46;;;;;;;11.32;3.83;;;5.40;99.90;;;;;;5035671;28;20401;-81
2022/02/22 01:27:12;;;;;;;11.03;3.80;;;5.50;99.90;;;;;;5017710;28;20393;-82
2022/02/22 01:29:37;;;;;;;13.20;3.63;;;5.40;99.90;;;;;;5036066;28;20874;-82
2022/02/22 01:32:04;;;;;;;13.98;3.70;;;5.30;99.90;;;;;;5017851;28;20417;-82
2022/02/22 01:34:29;;;;;;;14.10;4.20;;;5.30;99.90;;;;;;5035292;28;20393;-82
2022/02/22 01:36:55;;;;;;;14.50;3.53;;;5.30;99.90;;;;;;5018320;28;20436;-83
2022/02/22 01:39:21;;;;;;;13.95;3.83;;;5.30;99.90;;;;;;5036638;28;20384;-83
2022/02/22 01:41:46;;;;;;;15.73;4.15;;;5.30;99.90;;;;;;5019502;28;20410;-82
2022/02/22 01:44:14;;;;;;;15.30;3.67;;;5.30;99.90;;;;;;5036336;28;21085;-82
2022/02/22 01:46:40;;;;;;;12.80;3.65;;;5.40;99.90;;;;;;5040760;28;20456;-82
2022/02/22 01:49:06;;;;;;;11.70;3.40;;;5.30;99.90;;;;;;5038554;28;20536;-82
2022/02/22 01:51:32;;;;;;;13.30;3.92;;;5.40;99.90;;;;;;5019490;28;20423;-82
2022/02/22 01:53:57;;;;;;;12.40;3.42;;;5.40;99.90;;;;;;5038196;28;20373;-82
2022/02/22 01:56:24;;;;;;;13.90;4.23;;;5.40;99.90;;;;;;5036732;28;21328;-82
2022/02/22 01:58:51;;;;;;;14.30;4.18;;;5.50;99.90;;;;;;5014173;28;20508;-82
2022/02/22 02:01:17;;;;;;;11.73;3.97;;;5.40;99.90;;;;;;5032865;28;20975;-82
2022/02/22 02:03:45;;;;;;;10.90;3.70;;;5.50;99.90;;;;;;5016115;28;20435;-82
2022/02/22 02:06:11;;;;;;;13.32;4.03;;;5.50;99.90;;;;;;5038346;28;20385;-82
2022/02/22 02:08:37;;;;;;;11.43;3.53;;;5.40;99.90;;;;;;5038359;28;20492;-82
2022/02/22 02:11:09;;;;;;;13.57;3.73;;;5.40;99.90;;;;;;5038216;28;20902;-82
2022/02/22 02:13:34;;;;;;;13.23;3.80;;;5.30;99.90;;;;;;5020160;28;20468;-82
2022/02/22 02:16:00;;;;;;;16.10;3.73;;;5.40;99.90;;;;;;5036871;28;20420;-82
2022/02/22 02:18:25;;;;;;;14.93;4.40;;;5.40;99.90;;;;;;5035609;28;20387;-82
2022/02/22 02:20:51;;;;;;;14.95;4.28;;;5.40;99.90;;;;;;5018186;28;20402;-82
2022/02/22 02:23:18;;;;;;;16.27;4.37;;;5.40;99.90;;;;;;5016999;28;20397;-82
2022/02/22 02:25:45;;;;;;;19.77;5.20;;;5.40;99.90;;;;;;5035560;28;20461;-83
2022/02/22 02:28:11;;;;;;;16.27;4.45;;;5.50;99.90;;;;;;5018267;28;20386;-81
2022/02/22 02:30:36;;;;;;;17.02;4.05;;;5.50;99.90;;;;;;5019038;28;20393;-82
2022/02/22 02:33:02;;;;;;;14.60;4.30;;;5.60;99.90;;;;;;5001415;28;20385;-82
2022/02/22 02:35:28;;;;;;;14.00;4.80;;;5.60;99.90;;;;;;5017938;28;20491;-82
2022/02/22 02:37:53;;;;;;;12.68;3.90;;;5.60;99.90;;;;;;5036945;28;20391;-83
2022/02/22 02:40:19;;;;;;;16.53;4.43;;;5.70;99.90;;;;;;5036240;28;20948;-83
2022/02/22 02:42:44;;;;;;;14.93;4.40;;;5.60;99.90;;;;;;5036648;28;20409;-82
2022/02/22 02:45:11;;;;;;;12.57;3.57;;;5.70;99.90;;;;;;5036417;28;20433;-83
2022/02/22 02:47:37;;;;;;;14.98;4.10;;;5.60;99.90;;;;;;5037289;28;20381;-82
2022/02/22 02:50:08;;;;;;;15.32;3.92;;;5.70;99.90;;;;;;5018704;28;20480;-83
2022/02/22 02:52:34;;;;;;;13.48;4.22;;;5.70;99.90;;;;;;5036999;28;20445;-82
2022/02/22 02:55:00;;;;;;;19.02;4.10;;;5.70;99.90;;;;;;5019710;28;20846;-82
2022/02/22 02:57:27;;;;;;;10.43;3.90;;;5.70;99.90;;;;;;5037987;28;20413;-82
2022/02/22 02:59:52;;;;;;;14.20;3.58;;;5.70;99.90;;;;;;5019309;28;20437;-82
2022/02/22 03:02:18;;;;;;;12.13;3.50;;;5.80;99.90;;;;;;5037352;28;20373;-82
2022/02/22 03:04:45;;;;;;;11.32;3.38;;;5.80;99.90;;;;;;5036442;28;20386;-82
2022/02/22 03:07:11;;;;;;;13.10;4.22;;;5.70;99.90;;;;;;5033781;28;20375;-82
2022/02/22 03:09:36;;;;;;;10.82;3.30;;;5.80;99.90;;;;;;5035767;28;20450;-83
2022/02/22 03:12:02;;;;;;;12.50;3.57;;;5.80;99.90;;;;;;5018546;28;21183;-83
2022/02/22 03:14:28;;;;;;;13.07;4.15;;;5.70;99.90;;;;;;5017739;28;20497;-82
2022/02/22 03:16:53;;;;;;;12.95;3.75;;;5.80;99.90;;;;;;5034224;28;20385;-82
2022/02/22 03:19:19;;;;;;;13.73;3.80;;;5.70;99.90;;;;;;5016303;28;20381;-82
2022/02/22 03:21:45;;;;;;;17.35;4.43;;;5.70;99.90;;;;;;5034182;28;20433;-82
2022/02/22 03:24:10;;;;;;;15.47;4.00;;;5.70;99.90;;;;;;5036494;28;20431;-82
2022/02/22 03:26:36;;;;;;;17.57;4.97;;;5.80;99.90;;;;;;5019020;28;20401;-82
2022/02/22 03:29:03;;;;;;;18.88;4.82;;;5.80;99.90;;;;;;5036663;28;20878;-84
2022/02/22 03:31:29;;;;;;;17.90;5.13;;;5.80;99.90;;;;;;5016702;28;20457;-83
2022/02/22 03:33:56;;;;;;;20.30;5.20;;;5.90;99.90;;;;;;5035252;28;20906;-83
2022/02/22 03:36:22;;;;;;;26.75;5.72;;;5.80;99.90;;;;;;5016901;28;20489;-83
2022/02/22 03:38:49;;;;;;;19.25;5.32;;;5.70;99.90;;;;;;5034601;28;20421;-83
2022/02/22 03:41:15;;;;;;;20.38;5.80;;;5.80;99.90;;;;;;5036030;28;20405;-82
2022/02/22 03:43:41;;;;;;;22.00;6.38;;;5.70;99.90;;;;;;5016094;28;20421;-83
2022/02/22 03:46:07;;;;;;;23.23;6.00;;;5.70;99.90;;;;;;5036091;28;20380;-82
2022/02/22 03:48:32;;;;;;;20.57;6.23;;;5.70;99.90;;;;;;5034485;28;20838;-83
2022/02/22 03:50:58;;;;;;;28.23;6.77;;;5.70;99.90;;;;;;5017459;28;20397;-82
2022/02/22 03:53:23;;;;;;;19.08;5.60;;;5.70;99.90;;;;;;5016875;28;20386;-84
2022/02/22 03:55:49;;;;;;;23.48;6.50;;;5.70;99.90;;;;;;5017224;28;20391;-82
2022/02/22 03:58:15;;;;;;;29.98;8.00;;;5.60;99.90;;;;;;5032707;28;20374;-82
2022/02/22 04:00:40;;;;;;;21.03;6.10;;;5.60;99.90;;;;;;5033926;28;20467;-83
2022/02/22 04:03:12;;;;;;;22.00;6.40;;;5.60;99.90;;;;;;5032818;28;20463;-84
2022/02/22 04:05:38;;;;;;;23.05;6.50;;;5.50;99.90;;;;;;5031884;28;20390;-83
2022/02/22 04:08:04;;;;;;;23.17;7.00;;;5.50;99.90;;;;;;5014961;28;20475;-83
2022/02/22 04:10:30;;;;;;;22.80;6.18;;;5.50;99.90;;;;;;5014625;28;20431;-83
2022/02/22 04:12:56;;;;;;;22.95;6.38;;;5.60;99.90;;;;;;5032467;28;20369;-83
2022/02/22 04:15:22;;;;;;;23.23;7.83;;;5.50;99.90;;;;;;5015924;28;20956;-83
2022/02/22 04:17:48;;;;;;;20.63;6.20;;;5.50;99.90;;;;;;5033854;28;20370;-82
2022/02/22 04:20:14;;;;;;;25.60;6.33;;;5.40;99.90;;;;;;5033704;28;20397;-84
2022/02/22 04:22:39;;;;;;;20.87;6.03;;;5.50;99.90;;;;;;5017410;28;20397;-82
2022/02/22 04:25:06;;;;;;;24.53;6.23;;;5.50;99.90;;;;;;5018113;28;20381;-82
2022/02/22 04:27:32;;;;;;;23.83;6.65;;;5.30;99.90;;;;;;5016693;28;20377;-82
2022/02/22 04:29:58;;;;;;;23.37;6.53;;;5.40;99.90;;;;;;5032503;28;20377;-82
2022/02/22 04:32:24;;;;;;;22.07;7.30;;;5.30;99.90;;;;;;5034775;28;20443;-82
2022/02/22 04:34:50;;;;;;;21.83;6.57;;;5.20;99.90;;;;;;5035044;28;20901;-83
2022/02/22 04:37:16;;;;;;;21.80;6.07;;;5.30;99.90;;;;;;5019095;28;20460;-82
2022/02/22 04:39:44;;;;;;;24.25;7.00;;;5.30;99.90;;;;;;5018612;28;20417;-83
2022/02/22 04:42:09;;;;;;;23.92;7.05;;;5.20;99.90;;;;;;5034554;28;20879;-82
2022/02/22 04:44:35;;;;;;;25.73;7.33;;;5.20;99.90;;;;;;5015719;28;20392;-82
2022/02/22 04:47:01;;;;;;;22.77;6.63;;;5.30;99.90;;;;;;5035847;28;20374;-82
2022/02/22 04:49:26;;;;;;;23.00;7.13;;;5.20;99.90;;;;;;5017101;28;20883;-82
2022/02/22 04:51:52;;;;;;;23.77;6.78;;;5.20;99.90;;;;;;5034431;28;20821;-82
2022/02/22 04:54:17;;;;;;;28.80;7.87;;;5.20;99.90;;;;;;5016992;28;20377;-82
2022/02/22 04:56:43;;;;;;;26.63;7.33;;;5.10;99.90;;;;;;5036139;28;20825;-83
2022/02/22 04:59:09;;;;;;;23.85;7.70;;;5.00;99.90;;;;;;5034653;28;20397;-82
2022/02/22 05:01:34;;;;;;;26.15;7.75;;;5.00;99.90;;;;;;5034203;28;20397;-82
2022/02/22 05:04:00;;;;;;;30.03;7.90;;;4.90;99.90;;;;;;5016799;28;20381;-82
2022/02/22 05:06:25;;;;;;;27.60;7.43;;;4.90;99.90;;;;;;5016954;28;20421;-83
2022/02/22 05:08:51;;;;;;;25.17;7.72;;;5.00;99.90;;;;;;5035233;28;20420;-82
2022/02/22 05:11:17;;;;;;;24.48;7.60;;;4.90;99.90;;;;;;5035590;28;20427;-82
2022/02/22 05:13:43;;;;;;;25.73;7.40;;;5.00;99.90;;;;;;5016810;28;20393;-83
2022/02/22 05:16:09;;;;;;;27.35;6.85;;;5.00;99.90;;;;;;5017242;28;20391;-83
2022/02/22 05:18:35;;;;;;;26.70;7.20;;;5.20;99.90;;;;;;5016406;28;20473;-82
2022/02/22 05:21:00;;;;;;;26.30;7.32;;;5.20;99.90;;;;;;5015236;28;20914;-82
2022/02/22 05:23:35;;;;;;;29.90;7.90;;;5.10;99.90;;;;;;5032224;28;20384;-82
2022/02/22 05:26:04;;;;;;;26.45;7.47;;;5.10;99.90;;;;;;5014648;28;20455;-82
2022/02/22 05:28:30;;;;;;;29.35;7.65;;;5.10;99.90;;;;;;5014774;28;20452;-82
2022/02/22 05:30:56;;;;;;;29.95;7.80;;;4.90;99.90;;;;;;5032682;28;20974;-83
2022/02/22 05:33:22;;;;;;;24.08;7.40;;;5.00;99.90;;;;;;5014709;28;20377;-82
2022/02/22 05:35:50;;;;;;;22.30;6.97;;;5.00;99.90;;;;;;5032805;28;20374;-82
2022/02/22 05:38:16;;;;;;;27.35;7.70;;;5.00;99.90;;;;;;5015891;28;20473;-81
2022/02/22 05:40:42;;;;;;;27.38;8.60;;;5.00;99.90;;;;;;5032724;28;20433;-81
2022/02/22 05:43:09;;;;;;;25.45;7.45;;;5.10;99.90;;;;;;5033554;28;20415;-82
2022/02/22 05:45:35;;;;;;;33.20;8.40;;;5.10;99.90;;;;;;5015336;28;20731;-82
2022/02/22 05:48:01;;;;;;;26.40;8.65;;;5.10;99.90;;;;;;5018636;28;20384;-83
2022/02/22 05:50:27;;;;;;;26.67;8.18;;;5.00;99.90;;;;;;5021916;28;20412;-82
2022/02/22 05:52:53;;;;;;;28.02;8.00;;;4.90;99.90;;;;;;5023025;28;20401;-82
2022/02/22 05:55:19;;;;;;;27.65;8.57;;;5.00;99.90;;;;;;5041590;28;20385;-81
2022/02/22 05:57:45;;;;;;;25.70;8.23;;;5.00;99.90;;;;;;5024681;28;20381;-82
2022/02/22 06:00:11;;;;;;;28.10;7.50;;;5.00;99.90;;;;;;5024724;28;20928;-83
2022/02/22 06:02:37;;;;;;;29.15;8.18;;;5.00;99.90;;;;;;5053913;28;20404;-82
2022/02/22 06:05:03;;;;;;;29.65;9.02;;;4.80;99.90;;;;;;5053417;28;20834;-82
2022/02/22 06:07:32;;;;;;;21.25;7.53;;;4.80;99.90;;;;;;5054313;28;20723;-82
2022/02/22 06:10:11;;;;;;;29.10;8.43;;;4.70;99.90;;;;;;5054364;28;20457;-81
2022/02/22 06:12:37;;;;;;;24.70;7.95;;;4.70;99.90;;;;;;5036249;28;20475;-82
2022/02/22 06:15:05;;;;;;;24.73;7.82;;;4.70;99.90;;;;;;5052134;28;20476;-81
2022/02/22 06:17:38;;;;;;;29.00;7.50;;;4.70;99.90;;;;;;5056132;28;20762;-82
2022/02/22 06:20:05;;;;;;;25.90;8.50;;;4.70;99.90;;;;;;5035206;28;20407;-83
2022/02/22 06:22:30;;;;;;;27.47;8.43;;;4.80;99.90;;;;;;5025867;28;20801;-82
2022/02/22 06:24:56;;;;;;;28.43;8.27;;;4.70;99.90;;;;;;5055074;28;20380;-83
2022/02/22 06:27:22;;;;;;;32.22;8.65;;;4.70;99.90;;;;;;5054235;28;20376;-82
2022/02/22 06:29:47;;;;;;;34.50;8.53;;;4.80;99.90;;;;;;5034989;28;20467;-82
2022/02/22 06:32:13;;;;;;;27.77;8.27;;;4.80;99.90;;;;;;5036233;28;20368;-82
2022/02/22 06:34:38;;;;;;;28.63;8.38;;;4.80;99.90;;;;;;5053955;28;20375;-82
2022/02/22 06:37:04;;;;;;;25.67;7.93;;;4.90;99.90;;;;;;5035984;28;20470;-81
2022/02/22 06:39:30;;;;;;;26.60;8.07;;;4.80;99.90;;;;;;5051901;28;20392;-81
2022/02/22 06:41:57;;;;;;;32.60;8.20;;;4.70;99.90;;;;;;5044530;28;20471;-82
2022/02/22 06:44:23;;;;;;;25.75;7.38;;;4.80;99.90;;;;;;5031947;28;20383;-82
2022/02/22 06:46:49;;;;;;;25.65;8.00;;;4.80;99.90;;;;;;5036795;28;20392;-82
2022/02/22 06:49:14;;;;;;;28.73;8.30;;;4.80;99.90;;;;;;5035307;28;20384;-82
2022/02/22 06:51:40;;;;;;;29.20;8.60;;;4.70;99.90;;;;;;5036389;28;20380;-83
2022/02/22 06:54:05;;;;;;;27.50;8.53;;;4.60;99.90;;;;;;5054655;28;20464;-83
2022/02/22 06:56:31;;;;;;;30.50;8.70;;;4.60;99.90;;;;;;5054328;28;20795;-82
2022/02/22 06:58:57;;;;;;;28.07;8.83;;;4.60;99.90;;;;;;5058080;28;20447;-82
2022/02/22 07:01:22;;;;;;;31.27;8.30;;;4.70;99.90;;;;;;5028001;28;20412;-83
2022/02/22 07:03:48;;;;;;;28.50;8.65;;;4.60;99.90;;;;;;5032221;28;20382;-82
2022/02/22 07:06:14;;;;;;;30.95;8.05;;;4.60;99.90;;;;;;5029909;28;20373;-82
2022/02/22 07:08:39;;;;;;;21.63;7.18;;;4.60;99.90;;;;;;5010940;28;20401;-83
2022/02/22 07:11:05;;;;;;;28.83;8.00;;;4.60;99.90;;;;;;5010157;28;20388;-81
2022/02/22 07:13:30;;;;;;;26.67;8.30;;;4.70;99.90;;;;;;5030330;28;20362;-82
2022/02/22 07:15:56;;;;;;;24.60;7.13;;;4.80;99.90;;;;;;5031555;28;21177;-81
2022/02/22 07:18:22;;;;;;;24.48;8.15;;;4.90;99.90;;;;;;5032723;28;20376;-81
2022/02/22 07:20:47;;;;;;;24.57;7.93;;;4.90;99.90;;;;;;5032468;28;20415;-82
2022/02/22 07:23:13;;;;;;;29.30;7.37;;;4.80;99.90;;;;;;5031933;28;20386;-82
2022/02/22 07:25:38;;;;;;;27.88;7.75;;;5.00;99.90;;;;;;5032252;28;21430;-82
2022/02/22 07:28:04;;;;;;;26.90;8.27;;;4.90;99.90;;;;;;5031678;28;20450;-81
2022/02/22 07:30:30;;;;;;;28.33;8.77;;;4.80;99.90;;;;;;5033160;28;20377;-81
2022/02/22 07:32:58;;;;;;;25.40;7.07;;;4.90;99.90;;;;;;5031804;28;20424;-82
2022/02/22 07:35:24;;;;;;;22.70;7.20;;;4.90;99.90;;;;;;5031644;28;20385;-82
2022/02/22 07:37:50;;;;;;;24.70;6.53;;;5.10;99.90;;;;;;5013858;28;20408;-82
2022/02/22 07:40:18;;;;;;;24.23;7.70;;;5.00;99.90;;;;;;5033683;28;20405;-82
2022/02/22 07:42:44;;;;;;;24.95;7.25;;;5.10;99.90;;;;;;5035026;28;20564;-83
2022/02/22 07:45:11;;;;;;;22.33;6.70;;;5.30;99.90;;;;;;5046962;28;20387;-82
2022/02/22 07:47:38;;;;;;;21.95;6.18;;;5.30;99.90;;;;;;5033337;28;20456;-82
2022/02/22 07:50:05;;;;;;;25.98;7.38;;;5.30;99.90;;;;;;5035615;28;20372;-84
2022/02/22 07:52:31;;;;;;;22.10;6.72;;;5.30;99.90;;;;;;5051943;28;20388;-82
2022/02/22 07:54:57;;;;;;;26.65;7.10;;;5.30;99.90;;;;;;5050428;28;20784;-81
2022/02/22 07:57:24;;;;;;;23.42;7.40;;;5.50;99.90;;;;;;5042059;28;20391;-81
2022/02/22 07:59:49;;;;;;;24.77;7.90;;;5.60;99.90;;;;;;5046738;28;20394;-82
2022/02/22 08:02:15;;;;;;;27.67;7.87;;;5.80;99.90;;;;;;5049862;28;20380;-83
2022/02/22 08:04:41;;;;;;;20.25;6.80;;;5.90;99.90;;;;;;5033214;28;20765;-82
2022/02/22 08:07:08;;;;;;;25.77;6.40;;;6.00;99.90;;;;;;5051290;28;20394;-83
2022/02/22 08:09:34;;;;;;;26.55;7.55;;;5.90;99.90;;;;;;5051732;28;20387;-81
2022/02/22 08:12:00;;;;;;;23.05;6.78;;;5.80;99.90;;;;;;5034255;28;20395;-82
2022/02/22 08:14:26;;;;;;;19.83;6.85;;;5.90;99.90;;;;;;5034261;28;20383;-82
2022/02/22 08:16:57;;;;;;;24.90;6.07;;;5.70;99.90;;;;;;5051151;28;20829;-83
2022/02/22 08:19:24;;;;;;;16.88;5.93;;;5.70;99.90;;;;;;5032303;28;20445;-82
2022/02/22 08:21:49;;;;;;;18.27;5.18;;;5.50;99.90;;;;;;5034425;28;20443;-82
2022/02/22 08:24:15;;;;;;;18.90;5.40;;;5.60;99.90;;;;;;5037000;28;20427;-81
2022/02/22 08:26:41;;;;;;;17.38;4.90;;;5.50;99.90;;;;;;5057782;28;20400;-83
2022/02/22 08:29:07;;;;;;;12.75;4.47;;;5.60;99.90;;;;;;5054228;28;20547;-83
2022/02/22 08:31:32;;;;;;;15.63;4.80;;;5.80;99.90;;;;;;5040347;28;20419;-81
2022/02/22 08:33:58;;;;;;;13.45;3.70;;;5.90;99.90;;;;;;5041146;28;20387;-82
2022/02/22 08:36:27;;;;;;;11.80;3.72;;;6.00;99.90;;;;;;5035728;28;21053;-84
2022/02/22 08:38:53;;;;;;;12.60;3.70;;;6.10;99.90;;;;;;5019934;28;20394;-81
2022/02/22 08:41:18;;;;;;;12.70;3.88;;;6.30;99.90;;;;;;5044002;28;20407;-82
2022/02/22 08:43:44;;;;;;;11.00;3.70;;;6.30;99.90;;;;;;5054951;28;20402;-82
2022/02/22 08:46:10;;;;;;;14.50;3.53;;;6.60;99.90;;;;;;5037329;28;20394;-82
2022/02/22 08:48:35;;;;;;;13.40;4.40;;;6.70;99.90;;;;;;5055919;28;20387;-82
2022/02/22 08:51:01;;;;;;;13.40;4.47;;;6.80;99.90;;;;;;5037525;28;20484;-82
2022/02/22 08:53:27;;;;;;;10.47;3.10;;;6.80;99.90;;;;;;5034850;28;20417;-82
2022/02/22 08:55:52;;;;;;;9.45;3.15;;;7.00;99.90;;;;;;5041703;28;20392;-82
2022/02/22 08:58:19;;;;;;;8.95;3.17;;;7.20;99.90;;;;;;5056574;28;20853;-82
2022/02/22 09:00:45;;;;;;;12.98;3.50;;;7.10;99.90;;;;;;5036734;28;20788;-81
2022/02/22 09:03:10;;;;;;;11.73;3.83;;;7.00;99.90;;;;;;5036957;28;20384;-83
2022/02/22 09:05:37;;;;;;;11.10;4.00;;;6.80;99.90;;;;;;5037456;28;20395;-82
2022/02/22 09:08:03;;;;;;;12.27;3.97;;;6.60;99.90;;;;;;5037975;28;20396;-82
2022/02/22 09:10:29;;;;;;;14.13;4.40;;;6.50;99.90;;;;;;5057069;28;20407;-82
2022/02/22 09:12:55;;;;;;;14.27;4.70;;;6.50;99.90;;;;;;5037855;28;20407;-83
2022/02/22 09:15:24;;;;;;;14.90;5.40;;;6.60;99.90;;;;;;5051402;28;20882;-82
2022/02/22 09:17:50;;;;;;;20.65;6.10;;;6.60;99.90;;;;;;5033468;28;20378;-82
2022/02/22 09:20:17;;;;;;;17.23;5.77;;;6.70;99.90;;;;;;5033049;28;20433;-83
2022/02/22 09:22:44;;;;;;;19.10;5.82;;;6.90;99.90;;;;;;5034659;28;20370;-82
2022/02/22 09:25:13;;;;;;;19.08;5.97;;;6.90;99.90;;;;;;5021167;28;20498;-82
2022/02/22 09:27:42;;;;;;;21.10;5.80;;;6.90;99.90;;;;;;5037250;28;20854;-82
2022/02/22 09:30:09;;;;;;;19.77;7.30;;;7.20;99.90;;;;;;5054884;28;20498;-82
2022/02/22 09:32:34;;;;;;;26.55;6.72;;;7.40;99.90;;;;;;5053026;28;20739;-83
2022/02/22 09:35:00;;;;;;;19.50;6.70;;;7.70;99.90;;;;;;5052080;28;20380;-82
2022/02/22 09:37:26;;;;;;;22.73;6.57;;;7.70;99.90;;;;;;5052374;28;20403;-82
2022/02/22 09:39:51;;;;;;;17.55;5.93;;;7.90;99.90;;;;;;5034647;28;20396;-82
2022/02/22 09:42:17;;;;;;;19.75;6.22;;;8.00;99.90;;;;;;5034072;28;20380;-83
2022/02/22 09:44:42;;;;;;;22.87;6.33;;;8.00;99.90;;;;;;5034960;28;20877;-83
2022/02/22 09:47:12;;;;;;;20.73;6.40;;;8.10;99.90;;;;;;5050971;28;20475;-83
2022/02/22 09:49:38;;;;;;;21.48;6.10;;;8.00;99.90;;;;;;5033267;28;20354;-83
2022/02/22 09:52:05;;;;;;;26.15;6.65;;;8.10;99.90;;;;;;5020771;28;20897;-83
2022/02/22 09:54:31;;;;;;;22.42;7.00;;;8.00;99.90;;;;;;5053308;28;20407;-81
2022/02/22 09:56:57;;;;;;;20.63;6.13;;;7.70;99.90;;;;;;5035424;28;20392;-83
2022/02/22 09:59:24;;;;;;;23.90;6.80;;;7.90;99.90;;;;;;5034194;28;20406;-82
2022/02/22 10:01:55;;;;;;;16.90;6.25;;;7.90;99.90;;;;;;5034306;28;20403;-81
2022/02/22 10:04:21;;;;;;;22.25;6.13;;;7.80;99.90;;;;;;5028220;28;20399;-82
2022/02/22 10:06:47;;;;;;;23.33;6.35;;;7.60;99.90;;;;;;5033558;28;20408;-83
2022/02/22 10:09:13;;;;;;;21.73;6.60;;;7.80;99.90;;;;;;5032651;28;20485;-83
2022/02/22 10:11:47;;;;;;;21.83;6.43;;;7.80;99.90;;;;;;5025363;28;20398;-82
2022/02/22 10:14:22;;;;;;;22.02;6.50;;;7.80;99.90;;;;;;5053169;28;20919;-83
2022/02/22 10:16:48;;;;;;;23.00;6.35;;;7.70;99.90;;;;;;5036303;28;20387;-82
2022/02/22 10:19:16;;;;;;;21.63;6.88;;;7.70;99.90;;;;;;5034306;28;20380;-82
2022/02/22 10:21:56;;;;;;;21.67;5.90;;;7.60;99.90;;;;;;5038127;28;20400;-82
2022/02/22 10:24:25;;;;;;;17.38;5.20;;;7.70;99.90;;;;;;5030353;28;20423;-83
2022/02/22 10:27:08;;;;;;;14.55;4.88;;;8.00;99.90;;;;;;5015880;28;20786;-84
2022/02/22 10:29:35;;;;;;;19.50;5.18;;;8.20;99.90;;;;;;5032789;28;20382;-82
2022/02/22 10:32:16;;;;;;;16.02;4.93;;;8.30;99.90;;;;;;5012104;28;20790;-83
2022/02/22 10:34:42;;;;;;;15.75;5.28;;;8.40;99.90;;;;;;5013634;28;20456;-83
2022/02/22 10:37:08;;;;;;;16.90;5.07;;;8.20;99.90;;;;;;5020772;28;20808;-83
2022/02/22 10:39:34;;;;;;;15.23;4.70;;;8.10;99.90;;;;;;5051727;28;20892;-82
2022/02/22 10:41:59;;;;;;;17.60;4.90;;;8.20;99.90;;;;;;5035758;28;20428;-82
2022/02/22 10:44:35;;;;;;;15.32;4.80;;;8.20;99.90;;;;;;5032070;28;20384;-83
2022/02/22 10:47:03;;;;;;;18.65;4.78;;;8.10;99.90;;;;;;5029599;28;20423;-82
2022/02/22 10:49:35;;;;;;;15.48;5.15;;;8.10;99.90;;;;;;5048481;28;20857;-82
2022/02/22 10:52:06;;;;;;;20.27;5.38;;;8.00;99.90;;;;;;5029250;28;20423;-82
2022/02/22 10:54:31;;;;;;;22.52;4.93;;;8.10;99.90;;;;;;5049288;28;20372;-82
2022/02/22 10:56:57;;;;;;;18.47;4.53;;;8.10;99.90;;;;;;5049296;28;20857;-82
2022/02/22 10:59:25;;;;;;;14.77;4.63;;;8.20;99.90;;;;;;5031058;28;20427;-82
2022/02/22 11:01:52;;;;;;;15.48;4.80;;;8.20;99.90;;;;;;5030264;28;20416;-83
2022/02/22 11:04:18;;;;;;;14.98;4.65;;;7.90;99.90;;;;;;5030782;28;20915;-82
2022/02/22 11:06:43;;;;;;;11.73;3.97;;;7.80;99.90;;;;;;5050240;28;20397;-81
2022/02/22 11:09:13;;;;;;;12.73;4.07;;;7.90;99.90;;;;;;5031055;28;20371;-83
2022/02/22 11:11:42;;;;;;;18.80;4.82;;;7.80;99.90;;;;;;5050016;28;20386;-82
2022/02/22 11:14:14;;;;;;;12.37;4.27;;;7.80;99.90;;;;;;5030771;28;20391;-82
2022/02/22 11:16:45;;;;;;;13.23;4.60;;;7.80;99.90;;;;;;5030531;28;20561;-82
2022/02/22 11:19:26;;;;;;;19.17;4.95;;;8.10;99.90;;;;;;5031636;28;20416;-82
2022/02/22 11:21:56;;;;;;;16.60;4.55;;;8.10;99.90;;;;;;5030951;28;20411;-83
2022/02/22 11:24:32;;;;;;;15.25;4.88;;;8.10;99.90;;;;;;5049051;28;20384;-82
2022/02/22 11:27:00;;;;;;;19.70;5.53;;;8.10;99.90;;;;;;5031276;28;20396;-83
2022/02/22 11:29:30;;;;;;;17.88;5.90;;;8.00;99.90;;;;;;5031145;28;20479;-84
2022/02/22 11:31:56;;;;;;;17.07;5.87;;;8.00;99.90;;;;;;5031729;28;20377;-82
2022/02/22 11:34:39;;;;;;;16.57;5.33;;;8.20;99.90;;;;;;5011507;28;20747;-83
2022/02/22 11:37:12;;;;;;;18.33;5.90;;;8.50;99.90;;;;;;5012026;28;20439;-81
2022/02/22 11:39:51;;;;;;;21.17;5.50;;;8.70;99.90;;;;;;5026178;28;20748;-84
2022/02/22 11:42:23;;;;;;;17.38;5.10;;;8.40;99.90;;;;;;5030743;28;20902;-84
2022/02/22 11:45:06;;;;;;;17.85;5.55;;;8.10;99.90;;;;;;5047203;28;20414;-83
2022/02/22 11:47:33;;;;;;;21.23;6.35;;;8.00;99.90;;;;;;5047324;28;20389;-83
2022/02/22 11:50:00;;;;;;;17.13;5.97;;;7.80;99.90;;;;;;5028940;28;20384;-83
2022/02/22 11:52:41;;;;;;;18.30;5.95;;;7.70;99.90;;;;;;5047153;28;20429;-81
2022/02/22 11:55:11;;;;;;;21.80;6.10;;;7.80;99.90;;;;;;5029294;28;20403;-83
2022/02/22 11:57:44;;;;;;;20.67;5.68;;;8.00;99.90;;;;;;5050026;28;20380;-86
2022/02/22 12:00:10;;;;;;;19.50;5.90;;;8.00;99.90;;;;;;5034568;28;20465;-82
2022/02/22 12:02:42;;;;;;;27.38;6.30;;;8.20;99.90;;;;;;5052360;28;20473;-81
2022/02/22 12:05:24;;;;;;;22.80;6.70;;;8.40;99.90;;;;;;5028700;28;20397;-82
2022/02/22 12:08:10;;;;;;;19.60;5.70;;;8.50;99.90;;;;;;5034603;28;20901;-83
2022/02/22 12:10:45;;;;;;;20.98;5.82;;;8.70;99.90;;;;;;5017492;28;20389;-81
2022/02/22 12:13:17;;;;;;;22.33;6.47;;;8.90;99.90;;;;;;5054277;28;20387;-81
2022/02/22 12:15:44;;;;;;;17.90;5.80;;;9.00;99.90;;;;;;5053173;28;20380;-82
2022/02/22 12:18:21;;;;;;;18.73;5.53;;;9.10;99.90;;;;;;5033027;28;20383;-81
2022/02/22 12:20:49;;;;;;;16.77;5.35;;;9.10;99.90;;;;;;5050761;28;20403;-81
2022/02/22 12:23:25;;;;;;;21.05;6.07;;;8.80;99.90;;;;;;5027280;28;20899;-82
2022/02/22 12:25:54;;;;;;;18.15;5.60;;;8.60;99.90;;;;;;5031397;28;20381;-80
2022/02/22 12:28:21;;;;;;;20.60;6.13;;;8.40;99.90;;;;;;5015604;28;20451;-80
2022/02/22 12:30:48;;;;;;;26.33;6.95;;;8.30;99.90;;;;;;5016155;28;20408;-81
2022/02/22 12:33:17;;;;;;;19.75;6.15;;;8.50;99.90;;;;;;5033891;28;20866;-81
2022/02/22 12:35:45;;;;;;;19.63;6.75;;;8.60;99.90;;;;;;5034682;28;20384;-82
2022/02/22 12:38:28;;;;;;;18.25;5.60;;;8.60;99.90;;;;;;5033509;28;20405;-82
2022/02/22 12:40:54;;;;;;;20.92;4.90;;;8.30;99.90;;;;;;5035272;28;20413;-82
2022/02/22 12:43:20;;;;;;;15.38;4.85;;;8.20;99.90;;;;;;5016695;28;20970;-82
2022/02/22 12:45:51;;;;;;;16.42;4.90;;;8.20;99.90;;;;;;5016425;28;20739;-81
2022/02/22 12:48:19;;;;;;;16.38;5.20;;;8.50;99.90;;;;;;5035035;28;20396;-82